Flight Track Log - Related Links

Times and Time Zones

All times are in EST time to prevent confusion due to time zone crossing. See the N45NS flight status page for this flight to view local times or setup timezone preferences in your user account.

Time Position Orientation Groundspeed Altitude Reporting Facility
EST Latitude Longitude Course Direction KTS MPH feet Rate Location/Type
Tue 03:59:32 PM 40.8633 -81.9350 178° South 216 249 2,700  Level Cleveland Center
Tue 04:00:34 PM 40.8003 -81.9328 178° South 237 273 6,400 3,435 Climbing Cleveland Center
Tue 04:01:36 PM 40.7278 -81.9297 178° South 254 292 9,800 3,290 Climbing Cleveland Center
Tue 04:02:38 PM 40.6464 -81.9256 178° South 282 325 13,200 3,488 Climbing Cleveland Center
Tue 04:03:45 PM 40.5478 -81.9217 178° South 297 342 17,300 3,488 Climbing Indianapolis Center
Tue 04:04:47 PM 40.4594 -81.9167 178° South 308 354 20,700 2,758 Climbing Indianapolis Center
Tue 04:05:49 PM 40.3681 -81.9125 178° South 318 366 23,000 1,113 Climbing Indianapolis Center
Tue 04:06:51 PM 40.2364 -81.9056 178° South 392 451 23,000 726 Level Indianapolis Center
Tue 04:07:53 PM 40.1192 -81.9008 178° South 409 471 24,500 1,452 Climbing Indianapolis Center
Tue 04:08:55 PM 40.0072 -81.8958 178° South 404 465 26,000 1,403 Climbing Indianapolis Center
Tue 04:09:57 PM 39.8889 -81.8978 181° South 416 479 27,400 968 Climbing Indianapolis Center
Tue 04:10:59 PM 39.7756 -81.9178 188° South 414 476 28,000 288 Climbing Indianapolis Center
Tue 04:12:02 PM 39.6514 -81.9372 187° South 419 482 28,000 432 Level Indianapolis Center
Tue 04:13:04 PM 39.5325 -81.9558 187° South 426 490 28,900 968 Climbing Indianapolis Center
Tue 04:14:06 PM 39.4228 -81.9736 187° South 409 471 30,000 532 Climbing Indianapolis Center
Tue 04:15:08 PM 39.3131 -81.9897 186° South 401 461 30,000  Level Indianapolis Center
Tue 04:16:10 PM 39.1828 -82.0100 187° South 399 459 30,000  Level Indianapolis Center
Tue 04:17:12 PM 39.0783 -82.0264 187° South 386 444 30,000  Level Indianapolis Center
Tue 04:18:14 PM 38.9756 -82.0411 186° South 379 436 30,000  Level Indianapolis Center
Tue 04:19:16 PM 38.8728 -82.0556 186° South 378 435 30,000  Level Indianapolis Center
Tue 04:20:18 PM 38.7711 -82.0703 186° South 374 430 30,000  Level Indianapolis Center
Tue 04:21:20 PM 38.6500 -82.0897 187° South 371 427 30,000  Level Indianapolis Center
Tue 04:22:22 PM 38.5492 -82.1047 187° South 371 427 30,000 -192 Level Indianapolis Center
Tue 04:23:25 PM 38.4494 -82.1200 187° South 365 420 29,600 -672 Descending Indianapolis Center
Tue 04:24:27 PM 38.3450 -82.1356 187° South 372 428 28,600 -968 Descending Indianapolis Center
Tue 04:25:29 PM 38.2344 -82.1528 187° South 392 451 27,600 -968 Descending Indianapolis Center
Tue 04:26:31 PM 38.1217 -82.1689 186° South 402 463 26,600 -1,016 Descending Indianapolis Center
Tue 04:27:33 PM 37.9919 -82.1875 186° South 405 466 25,500 -1,016 Descending Indianapolis Center
Tue 04:28:35 PM 37.8794 -82.2039 187° South 406 467 24,500 -1,016 Descending Indianapolis Center
Tue 04:29:37 PM 37.7689 -82.2208 187° South 405 466 23,400 -871 Descending Indianapolis Center
Tue 04:30:39 PM 37.6378 -82.2397 187° South 405 466 22,700 -1,694 Descending Indianapolis Center
Tue 04:31:41 PM 37.5250 -82.2567 187° South 405 466 19,900 -2,516 Descending Indianapolis Center
Tue 04:32:43 PM 37.4114 -82.2722 186° South 408 470 17,500 -2,323 Descending Indianapolis Center
Tue 04:33:45 PM 37.3072 -82.2875 187° South 385 443 15,100 -2,226 Descending Indianapolis Center
Tue 04:34:47 PM 37.2086 -82.3019 187° South 364 419 12,900 -2,112 Descending Indianapolis Center
Tue 04:35:50 PM 37.1119 -82.3156 186° South 352 405 10,700 -1,392 Descending Indianapolis Center
Tue 04:36:52 PM 37.0117 -82.3303 187° South 317 365 10,000 -532 Descending Indianapolis Center
Tue 04:37:54 PM 36.9283 -82.3378 184° South 303 349 9,600 -823 Descending Indianapolis Center
Tue 04:38:56 PM 36.8475 -82.3317 177° South 294 338 8,300 -1,258 Descending Indianapolis Center
Tue 04:39:58 PM 36.7681 -82.3267 177° South 290 334 7,000 -1,645 Descending Indianapolis Center
Tue 04:41:00 PM 36.6919 -82.3239 178° South 281 323 4,900 -1,258 Descending Indianapolis Center
Tue 04:42:02 PM 36.6203 -82.3194 177° South 269 310 4,400 -774 Descending Indianapolis Center
Tue 04:43:04 PM 36.5428 -82.3325 188° South 248 285 3,300 -968 Descending Indianapolis Center
Tue 04:44:06 PM 36.5067 -82.3706 220° Southwest 193 222 2,400 -677 Descending Indianapolis Center
Tue 04:45:08 PM 36.4822 -82.4008 225° Southwest 165 190 1,900 -484 Descending Indianapolis Center

Login

Don't have an account? Register now (free) for customized features, flight alerts, and more!